Date,TemperatureHighF,TemperatureAvgF,TemperatureLowF,DewpointHighF,DewpointAvgF,DewpointLowF,HumidityHigh,HumidityAvg,HumidityLow,PressureMaxIn,PressureMinIn,WindSpeedMaxMPH,WindSpeedAvgMPH,GustSpeedMaxMPH,PrecipitationSumIn
2013-1-1,42,39,30,30,26,14,70,60,48,29.95,29.77,20,6,23,0.00
2013-1-2,34,29,25,16,13,10,60,51,43,30.12,29.93,18,5,24,0.00
2013-1-3,36,30,26,19,16,14,67,56,43,30.14,30.02,16,3,18,0.00
2013-1-4,39,34,29,22,21,19,67,59,47,30.05,29.92,22,8,30,0.00
2013-1-5,44,34,31,24,21,18,65,58,43,30.24,29.97,19,5,20,0.00
2013-1-6,48,40,34,35,30,23,93,69,48,30.18,29.92,16,3,16,0.04
2013-1-7,48,40,32,30,27,22,76,61,39,30.35,29.99,15,3,19,0.00
2013-1-8,50,39,31,33,30,25,86,69,49,30.39,30.29,18,4,21,0.00
2013-1-9,53,44,34,41,36,30,91,75,51,30.33,30.08,20,3,22,0.00
2013-1-10,51,45,38,32,26,22,65,49,34,30.48,30.19,20,5,23,0.00
2013-1-11,48,45,42,46,39,29,97,81,59,30.48,30.01,15,4,17,0.60
2013-1-12,48,46,45,47,46,44,98,97,94,30.12,29.99,10,2,14,0.00
2013-1-13,52,46,43,51,45,42,99,97,95,30.10,29.96,15,3,16,0.01
2013-1-14,59,51,42,57,45,30,100,83,46,30.22,29.87,19,4,21,0.06
2013-1-15,42,40,38,39,32,28,92,75,62,30.28,30.14,15,4,17,0.27
2013-1-16,42,38,36,41,37,33,97,95,82,30.15,29.74,19,5,24,0.73
2013-1-17,44,41,38,37,32,28,93,71,54,30.03,29.87,14,3,16,0.00
2013-1-18,39,32,27,30,14,4,69,49,31,30.45,29.94,23,5,25,0.00
2013-1-19,53,40,28,31,22,12,62,49,33,30.38,29.89,31,10,31,0.00
2013-1-20,57,46,33,30,24,11,62,44,22,29.98,29.65,29,11,36,0.00
2013-1-21,34,30,26,26,15,8,89,55,39,30.05,29.77,16,3,20,0.00
2013-1-22,26,20,15,20,1,-7,79,42,29,30.16,29.78,26,10,30,0.00
2013-1-23,21,16,12,3,-2,-6,60,45,32,30.21,30.11,22,5,27,0.00
2013-1-24,26,19,13,5,0,-9,63,44,22,30.36,30.06,28,6,33,0.00
2013-1-25,25,19,14,16,5,-4,85,56,37,30.36,30.01,16,3,18,0.00
2013-1-26,28,21,14,13,9,6,86,62,39,30.32,29.98,18,5,24,0.02
2013-1-27,35,26,18,15,11,7,63,52,35,30.47,30.31,18,4,23,0.01
2013-1-28,36,32,25,35,27,14,95,83,62,30.44,29.95,14,3,19,0.11
2013-1-29,51,42,36,44,40,34,96,91,74,30.08,29.95,11,1,12,0.00
2013-1-30,60,48,42,58,47,41,99,95,86,30.01,29.35,32,7,37,0.02
2013-1-31,60,46,30,59,32,10,98,62,32,29.76,29.05,47,16,49,0.60
2013-2-1,32,29,24,16,10,3,55,44,29,30.19,29.76,25,8,29,0.00
2013-2-2,33,26,19,21,8,2,84,47,27,30.26,30.00,18,6,24,0.00
2013-2-3,32,28,24,25,22,18,90,79,64,30.00,29.73,11,2,13,0.04
2013-2-4,31,27,22,23,13,8,87,56,39,29.95,29.76,25,7,28,0.00
2013-2-5,36,32,28,33,29,20,92,88,72,29.91,29.82,14,3,14,0.03
2013-2-6,41,35,30,32,24,7,92,68,39,30.30,29.84,23,5,26,0.00
2013-2-7,40,32,26,36,18,5,83,55,34,30.44,30.24,15,4,16,0.00
2013-2-8,42,38,30,40,36,28,96,93,83,30.24,29.54,36,14,41,0.99
2013-2-9,34,29,22,29,20,8,96,72,40,30.27,29.65,30,11,34,0.03
2013-2-10,33,26,15,27,14,7,79,63,36,30.43,30.27,13,2,16,0.12
2013-2-11,54,44,32,53,42,27,99,93,79,30.28,29.59,21,5,30,0.31
2013-2-12,47,42,34,43,27,24,93,57,41,29.91,29.67,28,8,30,0.00
2013-2-13,42,36,29,33,27,22,93,72,52,29.90,29.61,11,2,14,0.07
2013-2-14,44,38,33,36,34,31,95,85,64,29.96,29.62,17,4,17,0.09
2013-2-15,51,42,34,41,36,32,93,79,59,29.98,29.86,14,5,22,0.00
2013-2-16,45,38,32,34,29,17,88,71,52,29.88,29.65,23,7,25,0.01
2013-2-17,34,29,20,18,5,-2,58,37,25,29.95,29.59,36,13,36,0.00
2013-2-18,36,27,18,12,4,-1,47,38,27,30.21,29.95,27,8,33,0.00
2013-2-19,49,40,30,46,34,12,96,77,47,30.16,29.62,23,7,32,0.15
2013-2-20,39,32,26,28,13,8,66,46,36,29.94,29.67,26,11,32,0.00
2013-2-21,38,30,24,15,12,9,60,48,36,30.20,29.93,31,11,38,0.00
2013-2-22,40,34,26,36,25,14,87,71,60,30.32,30.19,14,4,17,0.01
2013-2-23,44,41,38,43,40,36,98,95,87,30.20,29.71,23,8,29,0.58
2013-2-24,49,40,34,40,32,21,98,76,48,29.92,29.67,29,8,30,0.01
2013-2-25,46,38,31,33,26,21,72,61,46,30.17,29.92,14,4,18,0.00
2013-2-26,45,38,29,40,32,25,95,80,68,30.22,29.77,33,8,37,0.23
2013-2-27,54,46,41,53,43,36,99,88,63,29.78,29.42,34,10,39,0.37
2013-2-28,53,44,38,40,35,28,90,70,47,29.58,29.49,16,4,22,0.00
2013-3-1,46,40,35,31,29,25,85,65,46,29.71,29.55,16,6,20,0.00
2013-3-2,43,37,31,26,23,22,71,58,45,29.72,29.64,21,6,21,0.00
2013-3-3,40,34,30,23,19,17,71,55,40,29.70,29.61,21,7,25,0.00
2013-3-4,43,35,28,20,18,14,64,50,38,29.85,29.70,32,10,32,0.00
2013-3-5,46,39,31,35,26,20,84,61,42,29.95,29.84,19,4,26,0.00
2013-3-6,41,40,37,38,35,31,90,82,75,29.90,29.70,43,20,51,0.11
2013-3-7,40,36,34,35,33,29,94,86,73,30.01,29.80,29,10,39,0.26
2013-3-8,42,36,32,34,32,30,96,89,66,30.09,29.93,22,8,24,0.32
2013-3-9,57,43,35,34,26,17,86,54,22,30.25,30.08,20,7,26,0.00
2013-3-10,42,38,32,36,34,30,95,84,74,30.34,30.25,12,4,13,0.00
2013-3-11,49,42,35,46,40,33,96,91,81,30.26,30.04,15,2,19,0.00
2013-3-12,55,49,46,54,47,40,98,93,77,30.04,29.62,22,8,32,0.66
2013-3-13,53,44,38,40,31,21,86,61,31,29.84,29.75,21,6,31,0.00
2013-3-14,43,37,31,25,13,6,61,39,26,29.90,29.79,30,11,39,0.00
2013-3-15,50,40,33,27,17,7,53,39,31,29.94,29.66,23,8,29,0.00
2013-3-16,43,37,33,33,28,21,94,71,47,29.85,29.71,13,4,17,0.07
2013-3-17,40,35,30,33,22,15,92,61,39,30.23,29.85,20,5,23,0.08
2013-3-18,40,36,32,39,26,13,96,69,43,30.33,29.92,26,11,31,0.44
2013-3-19,49,42,39,40,36,15,98,83,33,29.92,29.64,29,8,34,0.39
2013-3-20,49,40,32,24,18,14,58,41,26,29.84,29.73,27,8,30,0.00
2013-3-21,40,34,30,28,23,14,87,64,43,29.75,29.59,23,5,23,0.02
2013-3-22,43,35,28,21,17,13,64,49,34,29.83,29.68,25,8,28,0.00
2013-3-23,49,39,31,21,19,15,63,45,28,29.87,29.76,25,8,31,0.00
2013-3-24,45,39,31,29,22,17,66,52,35,29.89,29.65,17,4,22,0.00
2013-3-25,40,37,33,35,33,28,96,86,66,29.65,29.38,33,10,34,0.61
2013-3-26,52,44,34,36,31,26,96,65,38,29.80,29.51,17,4,21,0.13
2013-3-27,53,44,35,30,27,20,70,53,28,29.92,29.80,19,7,25,0.00
2013-3-28,51,44,36,32,29,27,76,57,40,30.04,29.90,16,6,21,0.00
2013-3-29,57,47,38,38,29,24,67,51,28,30.08,29.99,17,5,22,0.00
2013-3-30,57,45,38,40,32,21,76,61,27,30.11,30.03,18,4,19,0.00
2013-3-31,50,45,36,48,38,27,96,76,50,30.08,29.62,26,5,28,0.02
2013-4-1,65,52,40,48,39,10,96,66,28,29.84,29.56,27,8,32,0.08
2013-4-2,46,39,32,15,12,9,48,33,23,30.02,29.84,24,7,30,0.00
2013-4-3,48,40,33,15,12,8,43,31,22,30.22,30.02,24,9,29,0.00
2013-4-4,45,40,31,33,21,9,67,48,30,30.34,30.04,20,6,26,0.00
2013-4-5,62,47,39,40,30,20,91,57,20,30.04,29.65,20,4,25,0.14
2013-4-6,46,42,36,30,22,11,69,47,25,30.26,29.91,19,7,25,0.00
2013-4-7,53,46,38,46,38,28,84,72,65,30.25,29.96,26,7,32,0.00
2013-4-8,62,54,48,48,45,42,90,73,54,30.03,29.91,15,3,19,0.00
2013-4-9,84,67,48,54,47,39,92,55,20,29.94,29.85,23,6,31,0.00
2013-4-10,68,57,51,58,48,45,94,74,59,29.90,29.71,29,4,34,0.38
2013-4-11,60,53,46,59,51,43,98,93,83,29.96,29.70,20,6,22,0.03
2013-4-12,46,44,43,45,43,42,98,97,87,29.95,29.62,30,13,33,0.98
2013-4-13,52,47,41,45,43,40,98,87,69,29.93,29.65,16,5,23,0.08
2013-4-14,62,52,43,47,37,24,96,64,27,30.15,29.91,24,5,31,0.00
2013-4-15,53,48,45,44,39,32,89,71,60,30.32,30.15,15,4,20,0.00
2013-4-16,60,54,47,55,49,44,92,84,74,30.31,30.08,27,7,31,0.00
2013-4-17,62,58,53,57,48,37,92,72,52,30.23,30.05,16,4,17,0.00
2013-4-18,56,52,49,53,47,36,96,83,54,30.29,30.05,15,3,15,0.00
2013-4-19,66,58,52,64,56,52,99,94,78,30.05,29.63,30,9,33,0.00
2013-4-20,66,54,49,63,36,24,96,56,28,30.23,29.63,24,9,29,0.34
2013-4-21,50,45,38,32,26,19,63,48,39,30.56,30.22,19,6,22,0.00
2013-4-22,49,46,43,41,36,30,82,69,58,30.58,30.41,28,13,32,0.00
2013-4-23,51,46,42,43,40,36,94,81,73,30.41,30.05,30,10,32,0.01
2013-4-24,59,50,41,51,45,38,94,83,59,30.05,29.79,25,6,31,0.00
2013-4-25,62,54,48,54,39,26,94,60,27,30.21,29.84,23,6,28,0.02
2013-4-26,64,54,42,46,39,32,80,59,32,30.33,30.21,13,4,14,0.00
2013-4-27,61,54,47,43,37,31,66,53,37,30.37,30.25,13,4,19,0.00
2013-4-28,61,53,44,49,42,37,87,67,48,30.27,30.17,17,4,19,0.00
2013-4-29,54,53,51,52,50,47,93,90,79,30.18,30.11,11,3,14,0.24
2013-4-30,59,54,50,52,47,42,93,78,62,30.28,30.13,13,4,14,0.00
2013-5-1,59,52,48,49,46,43,92,80,63,30.42,30.26,14,4,16,0.00
2013-5-2,60,54,46,50,46,43,93,75,53,30.42,30.28,11,2,12,0.00
2013-5-3,57,53,49,48,44,40,87,73,55,30.41,30.30,21,7,24,0.00
2013-5-4,59,52,46,49,45,41,92,77,63,30.31,30.21,14,6,17,0.00
2013-5-5,56,50,47,45,42,38,88,73,59,30.24,30.18,18,7,21,0.00
2013-5-6,56,51,48,50,47,45,96,87,76,30.21,30.11,17,4,17,0.00
2013-5-7,58,54,50,55,52,48,98,94,84,30.11,30.03,12,4,14,0.05
2013-5-8,61,58,56,60,56,53,99,93,82,30.04,29.92,19,6,26,0.99
2013-5-9,68,59,55,61,56,53,98,89,64,29.95,29.85,12,2,14,0.43
2013-5-10,72,63,57,60,58,54,95,84,63,29.95,29.84,15,3,20,0.00
2013-5-11,66,62,59,63,60,56,97,92,80,29.85,29.66,21,4,25,0.26
2013-5-12,70,62,52,64,44,25,98,58,22,29.90,29.62,26,7,30,0.06
2013-5-13,59,52,43,35,29,22,69,43,27,30.04,29.90,22,6,24,0.00
2013-5-14,63,51,40,46,34,20,77,54,22,30.08,29.99,18,5,20,0.00
2013-5-15,66,57,49,59,49,33,88,75,54,30.02,29.64,17,5,24,0.00
2013-5-16,73,66,56,61,54,46,93,66,39,29.79,29.65,19,3,19,0.00
2013-5-17,75,66,57,60,44,37,78,47,27,30.14,29.77,16,4,20,0.00
2013-5-18,62,58,55,56,53,48,92,85,76,30.26,30.14,11,1,14,0.03
2013-5-19,58,57,56,58,56,54,99,97,89,30.25,30.11,18,6,20,0.49
2013-5-20,73,61,57,66,60,56,99,94,72,30.12,29.93,13,1,16,0.01
2013-5-21,81,71,64,70,65,62,97,83,62,29.93,29.82,18,4,20,0.00
2013-5-22,74,66,60,67,62,58,95,87,71,29.88,29.80,15,2,20,0.00
2013-5-23,72,64,60,67,61,58,97,89,74,29.86,29.73,24,8,30,0.00
2013-5-24,69,57,46,66,54,42,98,91,80,29.90,29.64,23,6,30,0.19
2013-5-25,60,51,44,47,42,34,94,73,43,29.96,29.85,32,10,37,0.05
2013-5-26,71,59,48,39,36,31,69,44,23,30.15,29.93,24,8,30,0.00
2013-5-27,70,60,46,51,42,32,73,53,26,30.20,30.08,19,3,23,0.00
2013-5-28,69,58,53,58,53,45,98,83,52,30.18,30.07,15,2,16,0.35
2013-5-29,75,65,56,67,60,55,98,84,64,30.07,29.97,12,1,16,0.01
2013-5-30,90,76,68,70,65,59,82,70,45,30.10,30.02,14,4,20,0.00
2013-5-31,89,76,67,71,66,60,88,71,50,30.09,29.96,18,3,21,0.00
2013-6-1,83,71,63,69,63,60,93,77,55,29.99,29.88,20,4,24,0.00
2013-6-2,79,68,62,69,63,58,96,83,62,29.90,29.76,26,5,26,0.30
2013-6-3,71,67,60,69,65,59,98,95,88,29.82,29.75,15,3,23,0.36
2013-6-4,75,68,59,66,49,42,96,53,34,30.04,29.82,17,4,20,0.00
2013-6-5,68,63,56,58,52,43,94,67,49,30.15,30.04,14,3,16,0.00
2013-6-6,70,63,59,63,60,58,98,89,75,30.09,29.94,13,3,15,0.03
2013-6-7,68,63,61,68,62,60,100,98,94,29.95,29.51,14,4,18,3.12
2013-6-8,81,69,58,67,63,58,100,84,59,30.01,29.47,19,5,24,0.26
2013-6-9,77,69,62,65,62,57,92,77,53,30.14,30.01,13,2,16,0.00
2013-6-10,68,66,64,67,64,62,100,95,86,30.11,29.77,15,2,17,2.77
2013-6-11,84,75,65,71,66,61,100,77,52,29.77,29.61,23,7,24,0.08
2013-6-12,84,74,67,61,57,52,76,58,35,29.80,29.68,22,6,26,0.00
2013-6-13,72,67,60,66,62,55,97,86,66,29.80,29.37,24,6,29,1.08
2013-6-14,71,62,55,59,55,52,97,80,57,29.85,29.41,35,6,38,0.08
2013-6-15,83,71,60,63,56,51,84,63,34,29.96,29.84,14,4,17,0.00
2013-6-16,87,73,63,68,62,56,84,70,45,29.95,29.76,21,5,27,0.00
2013-6-17,89,74,66,70,67,64,95,80,46,29.88,29.80,18,4,31,0.43
2013-6-18,76,68,65,69,65,63,96,89,72,29.87,29.75,14,2,19,0.64
2013-6-19,77,68,62,65,57,51,96,70,46,30.12,29.81,19,6,21,0.00
2013-6-20,76,68,58,62,57,52,90,69,43,30.24,30.12,21,5,23,0.00
2013-6-21,76,67,59,64,58,54,87,74,55,30.28,30.21,20,4,23,0.00
2013-6-22,76,68,60,66,62,55,96,80,62,30.22,30.11,18,4,19,0.00
2013-6-23,82,72,64,72,65,55,97,79,61,30.16,30.04,20,5,24,0.05
2013-6-24,95,80,71,76,70,63,98,75,40,30.05,29.94,15,4,22,0.02
2013-6-25,94,82,70,73,68,64,91,66,43,29.96,29.78,19,5,22,0.00
2013-6-26,91,79,72,72,68,64,96,69,42,29.82,29.74,25,5,25,0.91
2013-6-27,82,75,72,75,72,70,98,89,73,29.78,29.54,22,4,29,0.08
2013-6-28,85,76,70,73,70,67,95,81,59,29.56,29.44,17,5,22,0.02
2013-6-29,82,73,67,72,68,65,96,87,64,29.67,29.45,16,4,21,0.08
2013-6-30,76,70,66,71,68,64,98,92,76,29.88,29.67,14,3,18,0.04
2013-7-1,78,71,68,74,69,67,99,95,79,30.02,29.86,19,5,21,0.19
2013-7-2,76,71,67,72,68,66,99,93,79,30.16,30.01,19,5,21,0.17
2013-7-3,78,71,66,74,68,65,98,91,76,30.23,30.14,19,3,19,0.65
2013-7-4,84,77,70,76,71,67,97,84,67,30.24,30.14,12,4,21,0.00
2013-7-5,87,79,73,76,71,68,94,78,56,30.19,30.07,17,4,19,0.00
2013-7-6,96,84,75,77,74,70,93,73,43,30.11,29.99,16,5,18,0.00
2013-7-7,95,84,76,75,73,68,89,70,49,30.03,29.90,16,5,18,0.00
2013-7-8,91,79,72,73,70,67,87,74,49,30.02,29.95,16,5,19,0.00
2013-7-9,88,78,71,75,71,67,93,81,57,30.03,29.96,24,3,30,0.14
2013-7-10,89,80,70,77,73,69,95,79,56,29.99,29.79,17,4,20,0.01
2013-7-11,86,78,75,76,72,67,95,82,58,29.87,29.77,12,3,15,0.08
2013-7-12,78,73,69,70,68,63,97,84,65,30.02,29.86,26,9,31,0.33
2013-7-13,83,76,70,76,73,69,99,91,76,30.24,30.02,14,2,21,0.00
2013-7-14,91,80,74,76,74,72,96,81,56,30.30,30.21,16,4,18,0.00
2013-7-15,97,84,75,77,74,70,92,74,44,30.22,30.08,15,4,19,0.03
2013-7-16,94,85,77,74,70,64,86,62,40,30.15,30.08,15,2,16,0.00
2013-7-17,91,84,76,76,72,68,80,67,52,30.14,30.03,12,2,15,0.00
2013-7-18,94,86,78,80,74,69,80,69,55,30.03,29.92,14,3,17,0.00
2013-7-19,100,90,80,80,76,72,90,67,42,29.93,29.77,19,6,21,0.00
2013-7-20,98,86,78,76,73,69,81,66,40,29.79,29.69,18,6,26,0.00
2013-7-21,85,78,75,74,71,66,94,79,56,29.90,29.78,15,3,19,0.04
2013-7-22,84,78,75,77,75,74,97,93,78,29.90,29.75,10,2,12,0.15
2013-7-23,91,80,73,77,74,70,98,83,55,29.75,29.53,14,4,19,0.23
2013-7-24,87,79,73,73,67,58,88,67,52,29.86,29.57,14,5,17,0.00
2013-7-25,73,67,65,62,58,55,87,74,58,29.99,29.85,22,9,25,0.01
2013-7-26,80,72,65,69,64,60,88,76,60,30.02,29.93,18,5,20,0.00
2013-7-27,81,73,66,72,68,63,94,83,66,30.02,29.92,14,4,15,0.00
2013-7-28,81,73,67,73,70,65,97,89,73,29.95,29.88,13,3,15,0.15
2013-7-29,86,75,68,73,66,54,98,77,36,30.07,29.91,13,3,17,0.07
2013-7-30,84,74,64,66,58,55,76,57,38,30.13,30.06,13,3,15,0.00
2013-7-31,84,74,64,67,62,56,79,67,46,30.12,30.01,14,2,15,0.00
2013-8-1,75,71,69,70,67,62,97,86,72,30.01,29.79,19,3,24,0.85
2013-8-2,88,76,68,71,66,60,98,74,43,29.89,29.76,14,3,17,0.00
2013-8-3,81,73,69,69,66,64,89,80,62,29.89,29.82,18,3,19,0.02
2013-8-4,83,73,63,66,59,53,95,65,36,29.93,29.80,17,4,21,0.00
2013-8-5,81,70,60,61,53,45,76,58,31,30.01,29.92,13,4,16,0.00
2013-8-6,83,72,62,64,60,54,78,65,44,30.08,29.99,14,3,15,0.00
2013-8-7,81,74,70,70,67,63,90,78,65,30.10,30.03,15,5,20,0.00
2013-8-8,81,74,71,75,72,69,97,91,77,30.04,29.97,20,5,23,1.05
2013-8-9,86,77,72,78,73,70,98,90,70,29.99,29.77,17,5,21,0.01
2013-8-10,85,78,72,75,67,61,95,70,47,30.00,29.82,15,3,15,0.00
2013-8-11,81,73,64,65,62,58,88,68,50,30.08,29.99,12,3,14,0.00
2013-8-12,80,74,71,73,68,63,94,80,70,30.01,29.90,10,2,13,0.03
2013-8-13,76,72,70,74,70,68,99,94,79,29.90,29.68,14,2,20,0.98
2013-8-14,77,69,62,70,54,48,95,61,41,29.99,29.70,21,7,28,0.00
2013-8-15,78,67,57,59,54,50,81,63,43,30.10,29.99,14,4,19,0.00
2013-8-16,81,70,59,65,58,53,85,65,44,30.16,30.07,12,3,13,0.00
2013-8-17,79,70,60,66,60,56,89,72,52,30.23,30.16,8,1,10,0.00
2013-8-18,76,70,64,66,61,52,89,74,54,30.22,30.09,13,3,15,0.02
2013-8-19,80,71,63,65,61,56,88,72,49,30.10,30.01,11,3,14,0.00
2013-8-20,84,75,66,72,68,64,95,79,60,30.10,30.01,15,4,18,0.00
2013-8-21,89,76,69,75,68,60,92,79,40,30.14,30.03,10,3,14,0.00
2013-8-22,88,76,72,74,70,68,94,85,61,30.03,29.84,13,4,16,0.57
2013-8-23,81,75,70,70,63,51,94,70,37,30.04,29.83,13,4,18,0.00
2013-8-24,77,71,62,66,60,56,89,68,52,30.30,30.04,17,4,20,0.00
2013-8-25,82,70,59,64,57,51,95,67,35,30.36,30.21,15,4,19,0.00
2013-8-26,87,74,66,67,62,54,79,66,45,30.21,29.90,18,7,22,0.00
2013-8-27,90,78,71,71,68,64,91,72,44,29.90,29.80,17,5,22,0.03
2013-8-28,82,75,70,72,70,67,94,84,68,29.87,29.80,11,1,11,0.00
2013-8-29,80,73,70,72,68,66,97,85,65,30.00,29.82,17,5,19,0.00
2013-8-30,86,76,70,71,68,65,88,76,55,29.99,29.84,17,4,17,0.00
2013-8-31,88,77,70,74,71,68,95,82,62,29.85,29.76,19,6,21,0.00
2013-9-1,86,76,72,75,72,70,96,88,67,29.82,29.76,13,3,17,0.06
2013-9-2,82,74,71,78,72,69,98,94,72,29.76,29.68,11,1,12,0.11
2013-9-3,84,75,68,75,67,58,98,78,48,29.85,29.68,15,3,18,0.01
2013-9-4,84,72,62,61,58,53,86,62,37,29.96,29.84,15,4,17,0.00
2013-9-5,80,70,61,64,55,42,84,61,33,30.08,29.90,16,4,18,0.00
2013-9-6,72,64,56,53,48,44,75,57,44,30.20,30.08,16,4,19,0.00
2013-9-7,80,66,53,58,52,45,85,63,31,30.08,29.87,15,3,20,0.00
2013-9-8,84,74,65,66,59,46,90,62,39,30.02,29.78,18,6,21,0.00
2013-9-9,76,69,64,62,54,47,80,60,45,30.19,30.02,18,6,23,0.00
2013-9-10,86,76,69,72,68,62,89,78,62,30.15,30.03,18,5,21,0.00
2013-9-11,88,79,73,75,72,68,93,79,62,30.09,29.95,23,4,25,0.00
2013-9-12,84,75,71,73,70,67,94,85,64,29.97,29.67,22,4,35,0.37
2013-9-13,79,70,61,69,61,50,97,75,47,29.80,29.60,18,4,24,0.15
2013-9-14,70,60,52,50,48,45,84,66,46,30.07,29.80,16,5,21,0.00
2013-9-15,74,61,48,58,49,44,86,68,35,30.16,30.04,14,4,18,0.00
2013-9-16,72,64,60,61,57,52,93,80,58,30.16,29.99,18,3,21,0.11
2013-9-17,65,57,49,52,42,38,82,59,42,30.37,30.16,22,6,26,0.00
2013-9-18,69,57,48,52,47,42,84,69,47,30.30,30.15,13,3,14,0.00
2013-9-19,74,63,52,58,54,49,92,74,44,30.15,30.04,15,4,18,0.00
2013-9-20,76,65,56,64,58,53,92,79,54,30.05,29.96,13,4,17,0.00
2013-9-21,76,67,55,69,63,54,97,89,68,29.98,29.65,20,4,24,0.13
2013-9-22,72,65,56,69,54,42,97,70,41,29.85,29.61,20,6,24,0.36
2013-9-23,68,58,48,46,43,40,80,59,40,29.98,29.85,16,4,19,0.00
2013-9-24,73,59,46,51,46,42,88,64,37,30.00,29.83,14,3,18,0.00
2013-9-25,70,61,50,55,50,44,90,69,53,29.90,29.84,16,2,20,0.00
2013-9-26,71,60,51,62,55,49,96,85,67,30.04,29.88,13,2,15,0.00
2013-9-27,68,63,55,58,54,51,94,74,63,30.21,30.04,14,3,16,0.00
2013-9-28,72,65,59,58,56,54,88,73,57,30.27,30.18,14,4,17,0.00
2013-9-29,62,60,56,58,56,53,91,89,87,30.18,30.13,6,0,7,0.00
2013-9-30,71,65,52,59,56,50,96,73,58,30.02,29.94,11,3,13,0.00
2013-10-1,77,66,56,64,58,53,91,75,51,29.96,29.87,12,3,13,0.00
2013-10-2,84,72,61,63,60,56,87,68,43,29.98,29.89,17,4,21,0.01
2013-10-3,75,69,61,62,59,54,88,73,56,30.08,29.98,13,1,13,0.00
2013-10-4,84,71,61,68,64,58,96,79,52,30.02,29.94,13,2,16,0.00
2013-10-5,71,68,66,66,65,64,96,90,79,30.05,29.96,12,3,17,0.10
2013-10-6,72,68,66,70,67,64,98,96,91,30.05,29.99,11,3,14,0.00
2013-10-7,76,68,60,71,66,55,99,91,79,29.99,29.78,26,6,32,0.12
2013-10-8,67,61,53,55,47,43,81,62,43,30.25,29.95,19,6,20,0.00
2013-10-9,63,61,60,53,51,43,76,69,51,30.31,30.20,26,13,30,0.00
2013-10-10,64,61,57,61,57,51,94,88,72,30.21,29.98,27,12,31,0.19
2013-10-11,65,63,62,62,61,59,96,92,85,30.01,29.93,27,13,32,0.59
2013-10-12,68,64,62,60,56,50,86,75,63,30.19,29.99,31,13,40,0.00
2013-10-13,64,60,58,56,52,50,84,75,67,30.32,30.20,23,10,32,0.00
2013-10-14,64,59,54,53,51,49,85,75,64,30.30,30.21,14,4,19,0.00
2013-10-15,66,59,50,58,53,48,96,82,59,30.22,30.05,12,3,15,0.00
2013-10-16,67,62,60,60,59,57,93,89,75,30.05,29.88,12,2,14,0.00
2013-10-17,72,64,60,64,62,59,96,92,72,29.88,29.67,18,4,22,0.00
2013-10-18,68,62,53,64,48,42,92,61,43,29.94,29.65,27,7,27,0.00
2013-10-19,66,57,47,58,48,41,92,74,59,29.94,29.71,14,2,18,0.01
2013-10-20,63,55,48,57,41,33,92,62,34,30.02,29.71,16,5,20,0.01
2013-10-21,68,55,44,48,42,35,83,63,32,30.10,29.93,21,4,25,0.00
2013-10-22,72,58,48,52,47,40,95,70,41,29.94,29.71,17,3,21,0.02
2013-10-23,55,50,43,47,41,36,82,70,55,29.76,29.54,14,4,20,0.04
2013-10-24,55,45,40,37,32,26,86,62,35,29.97,29.71,21,6,24,0.00
2013-10-25,54,45,38,34,31,28,72,58,37,30.19,29.97,20,6,22,0.00
2013-10-26,58,47,36,37,32,28,82,59,33,30.17,29.85,23,6,26,0.00
2013-10-27,59,51,44,35,33,31,65,52,36,30.08,29.82,18,5,24,0.00
2013-10-28,62,50,38,41,35,30,77,58,36,30.24,30.07,16,3,19,0.00
2013-10-29,55,52,48,45,41,38,79,65,55,30.34,30.24,17,5,22,0.00
2013-10-30,59,52,43,56,48,39,91,86,71,30.29,30.14,8,0,11,0.01
2013-10-31,65,60,52,62,57,50,96,90,83,30.18,29.77,20,5,27,0.03
2013-11-1,71,64,60,64,60,56,96,86,67,29.79,29.54,28,8,31,0.17
2013-11-2,64,59,53,59,53,40,98,83,55,29.73,29.57,11,1,14,0.01
2013-11-3,55,47,36,43,34,22,84,61,42,30.37,29.73,18,6,23,0.00
2013-11-4,48,42,36,37,26,18,65,54,43,30.58,30.37,21,6,24,0.00
2013-11-5,57,52,48,44,41,36,73,66,57,30.58,30.43,14,4,15,0.00
2013-11-6,61,54,41,57,48,39,95,82,64,30.43,30.03,17,4,20,0.00
2013-11-7,65,56,41,61,52,32,96,84,64,30.03,29.71,20,6,28,0.06
2013-11-8,50,44,39,35,29,25,74,57,40,30.18,29.90,19,6,27,0.00
2013-11-9,52,44,35,35,28,23,73,57,35,30.25,29.95,14,5,16,0.00
2013-11-10,63,51,44,36,32,26,69,50,30,30.01,29.77,27,10,37,0.00
2013-11-11,56,49,41,35,29,25,56,46,32,30.17,29.91,19,7,24,0.00
2013-11-12,51,40,31,37,26,16,90,60,44,30.23,29.88,26,8,32,0.02
2013-11-13,40,33,27,19,14,8,64,48,27,30.32,30.22,19,5,23,0.00
2013-11-14,54,43,31,25,17,10,61,38,17,30.24,30.12,26,7,29,0.00
2013-11-15,56,46,40,42,33,25,72,62,39,30.20,30.11,12,4,14,0.00
2013-11-16,55,48,44,49,42,33,95,81,60,30.29,30.17,9,1,11,0.05
2013-11-17,62,56,48,60,55,47,99,96,94,30.21,29.75,16,2,18,0.00
2013-11-18,67,60,52,61,41,25,99,56,27,29.76,29.58,22,8,24,0.23
2013-11-19,52,45,36,28,24,22,57,44,35,30.28,29.74,26,9,33,0.00
2013-11-20,44,40,33,28,21,15,63,47,32,30.53,30.28,18,6,21,0.00
2013-11-21,54,49,43,44,38,28,76,65,54,30.53,30.34,12,4,15,0.00
2013-11-22,59,54,49,52,48,42,91,82,72,30.34,29.86,15,4,19,0.00
2013-11-23,54,44,32,50,26,11,88,52,31,29.97,29.85,25,9,32,0.00
2013-11-24,32,26,23,14,0,-4,46,31,27,30.33,29.94,34,12,37,0.00
2013-11-25,36,29,21,16,10,2,61,45,33,30.45,30.29,15,5,18,0.00
2013-11-26,54,41,32,53,31,16,97,69,41,30.29,29.67,20,5,24,0.49
2013-11-27,62,48,35,62,45,19,99,92,53,29.70,29.27,29,11,33,1.12
2013-11-28,37,32,29,22,15,9,63,49,31,30.42,29.70,29,7,32,0.00
2013-11-29,41,34,28,22,19,16,72,55,39,30.66,30.41,15,2,15,0.00
2013-11-30,46,36,27,41,26,15,83,65,57,30.67,30.28,16,4,21,0.00
2013-12-1,49,42,35,40,34,29,84,74,53,30.29,29.95,11,1,11,0.00
2013-12-2,49,43,39,44,34,28,94,72,51,29.95,29.82,8,1,10,0.00
2013-12-3,53,44,40,42,39,35,94,85,55,29.94,29.81,8,1,10,0.00
2013-12-4,52,46,38,49,42,32,96,85,72,30.07,29.94,7,0,7,0.00
2013-12-5,55,52,50,54,51,49,98,96,92,30.05,29.89,15,2,16,0.02
2013-12-6,60,48,38,60,47,36,99,96,91,30.07,29.82,24,5,26,0.52
2013-12-7,42,37,32,36,29,19,94,75,55,30.44,30.02,17,6,26,0.11
2013-12-8,40,32,28,39,25,16,95,75,56,30.52,30.26,19,6,27,0.13
2013-12-9,46,40,35,45,39,33,99,97,94,30.27,29.91,25,8,27,0.57
2013-12-10,36,33,28,34,30,21,96,89,70,30.10,29.83,18,5,18,0.08
2013-12-11,34,29,25,22,17,14,79,61,46,30.30,30.09,19,6,24,0.02
2013-12-12,29,25,21,16,6,2,68,46,31,30.30,30.13,22,6,24,0.00
2013-12-13,38,29,20,18,13,8,65,53,38,30.27,30.10,19,5,23,0.00
2013-12-14,51,37,30,50,32,18,98,83,56,30.39,29.64,29,11,34,1.00
2013-12-15,54,39,32,54,34,20,99,81,55,29.81,29.40,25,8,29,0.32
2013-12-16,32,28,22,23,12,6,68,50,35,30.18,29.80,27,6,27,0.00
2013-12-17,45,33,25,42,28,10,94,81,50,30.16,29.84,15,4,19,0.16
2013-12-18,38,30,24,24,21,19,89,69,47,30.13,29.84,21,6,24,0.00
2013-12-19,50,38,27,30,26,19,76,62,40,30.14,29.99,14,3,18,0.00
2013-12-20,56,46,35,50,35,30,88,67,42,30.05,29.93,13,4,17,0.00
2013-12-21,62,53,48,58,48,45,96,84,74,29.95,29.84,20,3,23,0.00
2013-12-22,69,60,53,64,56,51,98,89,76,29.92,29.76,24,8,31,0.03
2013-12-23,59,52,42,59,51,34,99,94,75,30.09,29.83,21,3,24,0.50
2013-12-24,42,37,28,34,23,10,74,57,41,30.29,30.03,20,8,26,0.00
2013-12-25,31,26,20,21,10,6,65,50,38,30.47,30.29,19,4,27,0.00
2013-12-26,40,32,26,26,22,17,73,66,51,30.37,30.11,17,2,21,0.00
2013-12-27,45,34,27,22,20,13,75,56,31,30.33,30.21,17,3,21,0.00
2013-12-28,58,44,30,30,26,21,74,52,30,30.24,30.02,27,7,28,0.00
2013-12-29,57,45,41,56,39,27,99,80,51,30.02,29.33,19,5,25,1.23
2013-12-30,48,38,26,40,29,11,92,71,51,30.12,29.65,19,6,22,0.00
2013-12-31,37,29,23,24,14,9,64,52,44,30.24,30.01,22,6,25,0.00
2014-1-1,38,31,24,32,18,8,79,58,43,30.35,30.16,17,3,22,0.00
2014-1-2,40,33,25,36,30,24,96,90,78,30.16,29.54,31,14,37,0.01